Date,TemperatureHighF,TemperatureAvgF,TemperatureLowF,DewpointHighF,DewpointAvgF,DewpointLowF,HumidityHigh,HumidityAvg,HumidityLow,PressureMaxIn,PressureMinIn,WindSpeedMaxMPH,WindSpeedAvgMPH,GustSpeedMaxMPH,PrecipitationSumIn
2013-5-1,89,70,49,43,30,17,67,28,9,29.98,29.75,12,2,17,0.00
2013-5-2,94,67,43,47,37,29,80,43,11,30.02,29.95,7,1,12,0.00
2013-5-3,96,67,42,48,42,37,84,48,15,29.96,29.69,8,1,14,0.00
2013-5-4,92,67,51,51,43,31,86,51,12,29.69,29.44,13,2,19,0.00
2013-5-5,63,58,52,53,49,47,86,72,60,29.71,29.51,7,1,16,0.00
2013-5-6,71,60,46,52,49,44,96,69,44,29.85,29.71,10,1,13,0.00
2013-5-7,75,60,46,53,49,44,97,70,41,29.92,29.85,7,1,14,0.00
2013-5-8,72,57,51,55,50,47,94,79,52,30.01,29.91,11,1,14,0.00
2013-5-9,77,59,45,56,49,43,96,74,46,30.05,29.94,12,1,15,0.00
2013-5-10,81,62,48,58,51,46,92,72,44,30.06,29.97,9,1,15,0.00
2013-5-11,91,64,46,60,51,44,98,69,31,30.03,29.91,9,1,14,0.00
2013-5-12,88,64,43,62,51,41,97,68,36,30.01,29.89,9,1,16,0.00
2013-5-13,90,66,46,58,49,44,99,62,25,29.96,29.81,14,3,21,0.00
2013-5-14,90,70,51,50,45,38,85,46,20,29.86,29.75,16,3,18,0.00
2013-5-15,82,62,44,48,44,40,91,56,25,29.89,29.84,14,3,21,0.00
2013-5-16,75,64,54,51,48,44,70,57,35,29.89,29.80,13,4,17,0.00
2013-5-17,78,62,49,49,44,35,81,54,28,29.95,29.84,11,2,19,0.00
2013-5-18,81,64,42,50,44,39,91,55,26,30.00,29.94,13,4,19,0.00
2013-5-19,90,70,53,47,43,35,70,43,15,30.02,29.85,11,2,15,0.00
2013-5-20,94,71,50,50,44,33,82,47,13,29.90,29.77,12,1,15,0.00
2013-5-21,72,60,48,46,42,35,87,55,31,29.89,29.78,20,6,28,0.00
2013-5-22,70,56,46,40,33,26,68,44,22,29.92,29.79,16,5,20,0.00
2013-5-23,76,59,46,43,39,33,73,51,21,29.89,29.78,14,4,20,0.00
2013-5-24,80,62,46,44,40,35,77,50,23,29.88,29.78,14,2,17,0.00
2013-5-25,80,61,42,47,42,34,88,53,20,29.92,29.82,18,3,23,0.00
2013-5-26,78,64,54,50,47,41,82,56,28,29.98,29.90,16,4,19,0.00
2013-5-27,64,58,52,56,50,43,97,76,63,29.99,29.88,12,1,13,0.06
2013-5-28,81,64,55,58,54,50,99,73,37,29.88,29.78,9,1,13,0.02
2013-5-29,81,66,56,52,48,42,79,56,25,29.83,29.75,13,4,21,0.00
2013-5-30,84,66,52,46,42,28,71,47,15,29.87,29.80,15,4,20,0.00
2013-5-31,95,73,55,51,44,37,66,40,15,29.90,29.78,12,2,17,0.00